Monticello, Kentucky
Current Conditions -  °F | °C
As of 8:56 AM on Friday 28 Nov 2014 (Local Time) from KEKQ Reporting Station
Clear Clear  
Wind Chill: 28°   Ceiling: Unl
Heat Index: 28°   Visibility: 10mi
Dew Point: 19°   Wind: 0mph
Humidity: 69%   Direction: NA
Pressure: 30.46"   Gusts: NA
Location:  36.83°N, 84.85°W
Report Text: KEKQ 281356Z AUTO 00000KT 10SM CLR M02/M07 A3046 RMK AO2 T10221072 SLP327
Loading
Personal Weather Stations






























Interactive Weather Map New forecast layout! Learn more

10-Day Weather Forecast

Advertisements
Track Severe Weather on mobile